Aroma Park, IL (60910)

4:22 PM CST on February 24, 2017 (GMT -0600)
Kankakee Nursery Office | | Change Station

Elev 607 ft 41.06 °N, 87.80 °W | Updated 4 seconds ago

Overcast
Overcast
50.5 °F
Feels Like 50.5 °F
N
21.7
Wind Variable Wind from SW
Gusts 30.0 mph

Today
High -- | Low -- °F
--% Chance of Precip.
Yesterday
High -- | Low -- °F
Precip. -- in
Pressure 29.52 in
Visibility 10.0 miles
Clouds Overcast 1200 ft
Dew Point 42 °F
Humidity 73%
Rainfall 0.04 in
Snow Depth Not available.
6:32 AM 5:36 PM
Waning Crescent, 3% visible
METAR KIKK 242215Z AUTO 27021G27KT 10SM OVC012 09/06 A2952 RMK AO2 LTG DSNT NE AND E T00900062
Pressure 29.52 in
Visibility 10.0 miles
Clouds Overcast 1200 ft
Dew Point 42 °F
Humidity 73%
Rainfall 0.04 in
Snow Depth Not available.
6:32 AM 5:36 PM
Waning Crescent, 3% visible
METAR KIKK 242215Z AUTO 27021G27KT 10SM OVC012 09/06 A2952 RMK AO2 LTG DSNT NE AND E T00900062

Get Your Daily Forecast Email!

Thanks for signing up!

Be on the lookout for a verification email in your inbox.

You'll start receiving the daily forecast at 8 AM.

×

10-Day Weather Forecast

Almanac

Astronomy

Feb. 24, 2017 Rise Set
Actual Time
Civil Twilight
Nautical Twilight
Astronomical Twilight
Moon
Length of Visible Light
Length of Day
Tomorrow will be .
, % of the Moon is Illuminated

Today's Extremes

State Highs State Lows

Community

WunderPhotos

Upload Photos

1,962,540 photos uploaded!

WunderBlog® & News

Nearby

Air Quality

  Air Quality AQ Index Pollutant
Not available.

Snow Depth

Station Depth Elevation

Earthquake Activity

City Distance Mag. Time & Date
Minimum magnitude displayed is 2.5.

Coastal Water Temperatures

Place Temperature

Stations

Nearby Weather Stations

Station Location Temp. Windchill Dew Point Humidity Wind Precip. Elev Updated Type
                   

Watches & Warnings

There are currently no watches in effect.